createdAt,value
2017-09-29T08:53:52.424Z,17.48
2017-09-29T08:55:02.493Z,17.4
2017-09-29T08:56:14.417Z,17.38
2017-09-29T08:57:26.602Z,17.43
2017-09-29T08:58:39.090Z,17.44
2017-09-29T08:59:50.644Z,17.41
2017-09-29T09:01:01.423Z,17.41
2017-09-29T09:02:11.589Z,17.41
2017-09-29T09:03:23.139Z,17.41
2017-09-29T09:04:33.797Z,17.49
2017-09-29T09:05:42.668Z,17.41
2017-09-29T09:06:51.471Z,17.48
2017-09-29T09:08:00.310Z,17.49
2017-09-29T09:09:09.145Z,17.46
2017-09-29T09:10:17.991Z,17.58
2017-09-29T09:11:26.822Z,17.66
2017-09-29T09:12:35.663Z,17.66
2017-09-29T09:13:44.495Z,17.63
2017-09-29T09:14:53.331Z,17.64
2017-09-29T09:16:02.165Z,17.75
2017-09-29T09:17:11.007Z,17.78
2017-09-29T09:18:19.844Z,17.74
2017-09-29T09:19:28.678Z,17.78
2017-09-29T09:20:37.518Z,17.86
2017-09-29T09:21:46.356Z,17.9
2017-09-29T09:22:55.194Z,17.84
2017-09-29T09:24:04.036Z,17.87
2017-09-29T09:25:12.870Z,17.89
2017-09-29T09:26:21.707Z,17.89
2017-09-29T09:27:30.550Z,17.95
2017-09-29T09:28:39.388Z,17.93
2017-09-29T09:29:48.226Z,17.99
2017-09-29T09:30:57.064Z,18.03
2017-09-29T09:32:05.902Z,18.05
2017-09-29T09:33:14.737Z,18.08
2017-09-29T09:34:23.576Z,18.08
2017-09-29T09:35:32.413Z,18.12
2017-09-29T09:36:41.248Z,18.12
2017-09-29T09:37:50.087Z,18.26
2017-09-29T09:38:58.924Z,18.25
2017-09-29T09:40:07.768Z,18.25
2017-09-29T09:41:16.606Z,18.33
2017-09-29T09:42:25.446Z,18.37
2017-09-29T09:43:34.279Z,18.35
2017-09-29T09:44:43.114Z,18.27
2017-09-29T09:45:52.278Z,18.32
2017-09-29T09:47:01.152Z,18.44
2017-09-29T09:48:09.951Z,18.41
2017-09-29T09:49:18.785Z,18.45
2017-09-29T09:50:27.621Z,18.48
2017-09-29T09:51:36.461Z,18.48
2017-09-29T09:52:45.297Z,18.47
2017-09-29T09:53:54.136Z,18.52
2017-09-29T09:55:02.977Z,18.55
2017-09-29T09:56:11.818Z,18.54
2017-09-29T09:57:20.653Z,18.6
2017-09-29T09:58:29.496Z,18.62
2017-09-29T09:59:38.336Z,18.52
2017-09-29T10:00:47.173Z,18.65
2017-09-29T10:01:56.006Z,18.69
2017-09-29T10:03:04.847Z,18.69
2017-09-29T10:04:13.683Z,18.78
2017-09-29T10:05:22.521Z,18.76
2017-09-29T10:06:31.358Z,18.81
2017-09-29T10:07:40.205Z,18.87
2017-09-29T10:08:49.363Z,18.84
2017-09-29T10:09:58.204Z,18.95
2017-09-29T10:11:07.039Z,18.88
2017-09-29T10:12:15.882Z,18.92
2017-09-29T10:13:24.722Z,18.94
2017-09-29T10:14:33.557Z,18.94
2017-09-29T10:15:42.392Z,19
2017-09-29T10:16:51.232Z,18.99
2017-09-29T10:18:00.070Z,19.06
2017-09-29T10:19:08.909Z,19.04
2017-09-29T10:20:17.752Z,19.08
2017-09-29T10:21:26.586Z,19.11
2017-09-29T10:22:35.420Z,19.13
2017-09-29T10:23:44.266Z,19.25
2017-09-29T10:24:53.112Z,19.11
2017-09-29T10:26:01.949Z,19.1
2017-09-29T10:27:10.786Z,19.16
2017-09-29T10:28:19.620Z,19.14
2017-09-29T10:29:28.461Z,19.26
2017-09-29T10:30:37.303Z,19.26
2017-09-29T10:31:46.145Z,19.22
2017-09-29T10:32:54.979Z,19.31
2017-09-29T10:34:03.824Z,19.36
2017-09-29T10:35:12.657Z,19.36
2017-09-29T10:36:21.493Z,19.39
2017-09-29T10:37:30.660Z,19.36
2017-09-29T10:38:39.497Z,19.37
2017-09-29T10:39:48.333Z,19.33
2017-09-29T10:40:57.170Z,19.39
2017-09-29T10:42:06.011Z,19.33
2017-09-29T10:43:14.853Z,19.39
2017-09-29T10:44:23.686Z,19.54
2017-09-29T10:45:32.527Z,19.5
2017-09-29T10:46:41.364Z,19.48
2017-09-29T10:47:50.202Z,19.58
2017-09-29T10:48:59.039Z,19.55
2017-09-29T10:50:07.879Z,19.56
2017-09-29T10:51:16.723Z,19.5
2017-09-29T10:52:25.562Z,19.59
2017-09-29T10:53:34.400Z,19.63
2017-09-29T10:54:43.237Z,19.63
2017-09-29T10:55:52.080Z,19.65
2017-09-29T10:57:00.919Z,19.65
2017-09-29T10:58:09.759Z,19.63
2017-09-29T10:59:18.597Z,19.65
2017-09-29T11:00:27.433Z,19.68
2017-09-29T11:01:36.276Z,19.71
2017-09-29T11:02:45.111Z,19.68
2017-09-29T11:03:53.952Z,19.63
2017-09-29T11:05:02.790Z,19.68
2017-09-29T11:06:11.621Z,19.73
2017-09-29T11:07:20.464Z,19.73
2017-09-29T11:08:29.307Z,19.77
2017-09-29T11:09:38.143Z,19.86
2017-09-29T11:10:46.984Z,19.87
2017-09-29T11:11:55.820Z,19.91
2017-09-29T11:13:04.659Z,19.87
2017-09-29T11:14:13.498Z,19.94
2017-09-29T11:15:22.338Z,19.86
2017-09-29T11:16:31.172Z,19.86
2017-09-29T11:17:40.014Z,19.88
2017-09-29T11:18:48.847Z,19.87
2017-09-29T11:19:57.686Z,20.02
2017-09-29T11:21:06.528Z,20.08
2017-09-29T11:22:15.369Z,20.03
2017-09-29T11:23:24.201Z,20.08
2017-09-29T11:24:33.052Z,20.01
2017-09-29T11:25:42.212Z,19.99
2017-09-29T11:26:51.049Z,20.05
2017-09-29T11:27:59.889Z,20.05
2017-09-29T11:29:08.733Z,20.08
2017-09-29T11:30:17.568Z,20.17
2017-09-29T11:31:26.411Z,20.17
2017-09-29T11:32:35.245Z,20.1
2017-09-29T11:33:44.085Z,20.17
2017-09-29T11:34:52.927Z,20.17
2017-09-29T11:36:01.764Z,20.21
2017-09-29T11:37:10.605Z,20.18
2017-09-29T11:38:19.443Z,20.21
2017-09-29T11:39:28.280Z,20.32
2017-09-29T11:40:37.119Z,20.29
2017-09-29T11:41:45.961Z,20.32
2017-09-29T11:42:55.125Z,20.29
2017-09-29T11:44:03.959Z,20.36
2017-09-29T11:45:12.800Z,20.28
2017-09-29T11:46:21.637Z,20.36
2017-09-29T11:47:30.477Z,20.38
2017-09-29T11:48:39.316Z,20.39
2017-09-29T11:49:48.162Z,20.39
2017-09-29T11:50:56.999Z,20.43
2017-09-29T11:52:05.838Z,20.42
2017-09-29T11:53:14.677Z,20.41
2017-09-29T11:54:23.513Z,20.48
2017-09-29T11:55:32.349Z,20.52
2017-09-29T11:56:41.517Z,20.5
2017-09-29T11:57:50.357Z,20.47
2017-09-29T11:58:59.198Z,20.54
2017-09-29T12:00:08.042Z,20.59
2017-09-29T12:01:16.882Z,20.55
2017-09-29T12:02:25.722Z,20.54
2017-09-29T12:03:34.560Z,20.57
2017-09-29T12:04:43.398Z,20.64
2017-09-29T12:05:52.236Z,20.58
2017-09-29T12:07:01.077Z,20.57
2017-09-29T12:08:09.917Z,20.61
2017-09-29T12:09:18.757Z,20.64
2017-09-29T12:10:27.603Z,20.57
2017-09-29T12:11:36.438Z,20.7
2017-09-29T12:12:45.281Z,20.72
2017-09-29T12:13:54.115Z,20.7
2017-09-29T12:15:02.958Z,20.67
2017-09-29T12:16:12.115Z,20.73
2017-09-29T12:17:20.959Z,20.8
2017-09-29T12:18:29.796Z,20.79
2017-09-29T12:19:38.633Z,20.79
2017-09-29T12:20:47.478Z,20.72
2017-09-29T12:21:56.321Z,20.72
2017-09-29T12:23:05.155Z,20.77
2017-09-29T12:24:14.323Z,20.73
2017-09-29T12:25:23.155Z,20.79
2017-09-29T12:26:31.996Z,20.73
2017-09-29T12:27:41.164Z,20.74
2017-09-29T12:28:50.009Z,20.84
2017-09-29T12:29:58.850Z,20.79
2017-09-29T12:31:07.696Z,20.8
2017-09-29T12:32:16.534Z,20.82
2017-09-29T12:33:25.371Z,20.88
2017-09-29T12:34:34.214Z,20.85
2017-09-29T12:35:43.053Z,20.85
2017-09-29T12:36:51.891Z,20.84
2017-09-29T12:38:00.732Z,20.85
2017-09-29T12:39:09.570Z,20.84
2017-09-29T12:40:18.411Z,20.82
2017-09-29T12:41:27.254Z,20.82
2017-09-29T12:42:36.094Z,20.88
2017-09-29T12:43:44.928Z,20.87
2017-09-29T12:44:53.771Z,20.84
2017-09-29T12:46:02.607Z,20.88
2017-09-29T12:47:11.449Z,20.87
2017-09-29T12:48:20.291Z,20.84
2017-09-29T12:49:29.129Z,20.89
2017-09-29T12:50:37.964Z,20.87
2017-09-29T12:51:46.798Z,20.85
2017-09-29T12:52:55.642Z,20.84
2017-09-29T12:54:04.482Z,20.84
2017-09-29T12:55:13.320Z,20.87
2017-09-29T12:56:22.162Z,20.8
2017-09-29T12:57:31.014Z,20.88
2017-09-29T12:58:40.174Z,20.89
2017-09-29T12:59:49.016Z,20.85
2017-09-29T13:00:57.854Z,20.84
2017-09-29T13:02:06.704Z,20.94
2017-09-29T13:03:15.545Z,20.91
2017-09-29T13:04:24.380Z,20.97
2017-09-29T13:05:33.219Z,20.95
2017-09-29T13:06:42.061Z,20.95
2017-09-29T13:07:50.901Z,20.85
2017-09-29T13:08:59.742Z,20.87
2017-09-29T13:10:08.585Z,20.91
2017-09-29T13:11:17.418Z,20.85
2017-09-29T13:12:26.257Z,20.92
2017-09-29T13:13:35.102Z,20.92
2017-09-29T13:14:43.938Z,20.89
2017-09-29T13:15:52.779Z,20.98
2017-09-29T13:17:01.618Z,20.85
2017-09-29T13:18:10.457Z,20.89
2017-09-29T13:19:19.294Z,20.87
2017-09-29T13:20:28.132Z,20.89
2017-09-29T13:21:36.979Z,20.99
2017-09-29T13:22:45.842Z,20.94
2017-09-29T13:23:54.663Z,20.88
2017-09-29T13:25:03.499Z,20.87
2017-09-29T13:26:12.339Z,20.91
2017-09-29T13:27:21.177Z,20.92
2017-09-29T13:28:30.021Z,20.95
2017-09-29T13:29:38.857Z,20.95
2017-09-29T13:30:47.704Z,20.87
2017-09-29T13:31:56.543Z,20.92
2017-09-29T13:33:05.379Z,20.92
2017-09-29T13:34:14.224Z,20.88
2017-09-29T13:35:23.072Z,20.92
2017-09-29T13:36:31.910Z,20.91
2017-09-29T13:37:41.092Z,20.94
2017-09-29T13:38:49.928Z,20.98
2017-09-29T13:39:58.765Z,20.97
2017-09-29T13:41:07.605Z,20.98
2017-09-29T13:42:16.450Z,20.91
2017-09-29T13:43:25.287Z,20.97
2017-09-29T13:44:34.130Z,20.98
2017-09-29T13:45:43.286Z,20.99
2017-09-29T13:46:52.125Z,20.91
2017-09-29T13:48:00.970Z,20.94
2017-09-29T13:49:09.812Z,20.84
2017-09-29T13:50:18.651Z,21.01
2017-09-29T13:51:27.501Z,20.91
2017-09-29T13:52:36.342Z,20.89
2017-09-29T13:53:45.504Z,20.91
2017-09-29T13:54:54.346Z,21.01
2017-09-29T13:56:03.182Z,21.01
2017-09-29T13:57:12.024Z,20.98
2017-09-29T13:58:20.865Z,20.89
2017-09-29T13:59:29.707Z,20.95
2017-09-29T14:00:38.546Z,20.98
2017-09-29T14:01:47.388Z,20.98
2017-09-29T14:02:56.558Z,20.95
2017-09-29T14:04:05.398Z,20.89
2017-09-29T14:05:14.240Z,20.97
2017-09-29T14:06:23.078Z,20.97
2017-09-29T14:07:31.915Z,20.92
2017-09-29T14:08:40.760Z,20.97
2017-09-29T14:09:49.599Z,20.95
2017-09-29T14:10:58.438Z,20.98
2017-09-29T14:12:07.271Z,20.91
2017-09-29T14:13:16.118Z,20.95
2017-09-29T14:14:24.953Z,20.98
2017-09-29T14:15:33.800Z,20.94
2017-09-29T14:16:42.639Z,20.89
2017-09-29T14:17:51.800Z,20.95
2017-09-29T14:19:00.641Z,20.95
2017-09-29T14:20:09.481Z,20.92
2017-09-29T14:21:18.325Z,20.94
2017-09-29T14:22:27.158Z,20.94
2017-09-29T14:23:36.004Z,20.92
2017-09-29T14:24:44.835Z,20.89
2017-09-29T14:25:53.691Z,20.8
2017-09-29T14:27:02.520Z,20.95
2017-09-29T14:28:11.361Z,20.94
2017-09-29T14:29:20.198Z,20.98
2017-09-29T14:30:29.042Z,20.94
2017-09-29T14:31:37.884Z,20.87
2017-09-29T14:32:46.722Z,21.01
2017-09-29T14:33:55.567Z,20.91
2017-09-29T14:35:04.405Z,20.91
2017-09-29T14:36:13.245Z,20.84
2017-09-29T14:37:22.087Z,20.91
2017-09-29T14:38:30.926Z,20.88
2017-09-29T14:39:39.766Z,20.85
2017-09-29T14:40:48.601Z,20.85
2017-09-29T14:41:57.771Z,20.92
2017-09-29T14:43:06.609Z,20.92
2017-09-29T14:44:15.776Z,20.88
2017-09-29T14:45:24.616Z,20.87
2017-09-29T14:46:33.461Z,20.89
2017-09-29T14:47:42.300Z,20.85
2017-09-29T14:48:51.137Z,20.95
2017-09-29T14:49:59.979Z,20.92
2017-09-29T14:51:08.821Z,20.89
2017-09-29T14:52:17.664Z,20.87
2017-09-29T14:53:26.505Z,20.8
2017-09-29T14:54:35.349Z,20.8
2017-09-29T14:55:44.185Z,20.84
2017-09-29T14:56:53.024Z,20.84
2017-09-29T14:58:01.863Z,20.84
2017-09-29T14:59:10.702Z,20.82
2017-09-29T15:00:19.539Z,20.82
2017-09-29T15:01:28.374Z,20.84
2017-09-29T15:02:37.215Z,20.85
2017-09-29T15:03:46.062Z,20.79
2017-09-29T15:04:55.219Z,20.84
2017-09-29T15:06:04.060Z,20.8
2017-09-29T15:07:12.906Z,20.76
2017-09-29T15:08:21.742Z,20.73
2017-09-29T15:09:30.581Z,20.74
2017-09-29T15:10:39.426Z,20.77
2017-09-29T15:11:48.264Z,20.69
2017-09-29T15:12:57.106Z,20.73
2017-09-29T15:14:05.945Z,20.72
2017-09-29T15:15:14.788Z,20.74
2017-09-29T15:16:23.948Z,20.7
2017-09-29T15:17:32.791Z,20.62
2017-09-29T15:18:41.636Z,20.7
2017-09-29T15:19:50.471Z,20.58
2017-09-29T15:20:59.315Z,20.61
2017-09-29T15:22:08.154Z,20.62
2017-09-29T15:23:16.995Z,20.58
2017-09-29T15:24:25.833Z,20.61
2017-09-29T15:25:34.672Z,20.62
2017-09-29T15:26:43.506Z,20.61
2017-09-29T15:27:52.346Z,20.48
2017-09-29T15:29:01.181Z,20.52
2017-09-29T15:30:10.021Z,20.5
2017-09-29T15:31:18.860Z,20.52
2017-09-29T15:32:27.706Z,20.5
2017-09-29T15:33:36.541Z,20.52
2017-09-29T15:34:45.382Z,20.48
2017-09-29T15:35:54.215Z,20.48
2017-09-29T15:37:03.377Z,20.42
2017-09-29T15:38:12.221Z,20.42
2017-09-29T15:39:21.069Z,20.47
2017-09-29T15:40:29.901Z,20.47
2017-09-29T15:41:38.743Z,20.42
2017-09-29T15:42:47.906Z,20.35
2017-09-29T15:43:56.743Z,20.35
2017-09-29T15:45:05.584Z,20.35
2017-09-29T15:46:14.422Z,20.29
2017-09-29T15:47:23.266Z,20.33
2017-09-29T15:48:32.104Z,20.29
2017-09-29T15:49:40.944Z,20.2
2017-09-29T15:50:49.780Z,20.18
2017-09-29T15:51:58.623Z,20.11
2017-09-29T15:53:07.464Z,20.16
2017-09-29T15:54:16.302Z,20.18
2017-09-29T15:55:25.139Z,20.11
2017-09-29T15:56:33.985Z,20.05
2017-09-29T15:57:42.820Z,20.08
2017-09-29T15:58:51.664Z,20.05
2017-09-29T16:00:00.512Z,20.1
2017-09-29T16:01:09.348Z,20.01
2017-09-29T16:02:18.184Z,20.08
2017-09-29T16:03:27.027Z,20.02
2017-09-29T16:04:35.861Z,20.02
2017-09-29T16:05:44.705Z,20.1
2017-09-29T16:06:53.546Z,20.06
2017-09-29T16:08:02.387Z,19.99
2017-09-29T16:09:11.226Z,19.88
2017-09-29T16:10:20.068Z,19.87
2017-09-29T16:11:28.904Z,19.95
2017-09-29T16:12:37.752Z,19.94
2017-09-29T16:13:46.590Z,19.91
2017-09-29T16:14:55.422Z,19.86
2017-09-29T16:16:04.270Z,19.86
2017-09-29T16:17:13.108Z,19.77
2017-09-29T16:18:21.948Z,19.8
2017-09-29T16:19:30.787Z,19.76
2017-09-29T16:20:39.627Z,19.81
2017-09-29T16:21:48.469Z,19.76
2017-09-29T16:22:57.306Z,19.77
2017-09-29T16:24:06.147Z,19.78
2017-09-29T16:25:14.986Z,19.69
2017-09-29T16:26:24.502Z,19.65
2017-09-29T16:27:33.343Z,19.77
2017-09-29T16:28:42.184Z,19.71
2017-09-29T16:29:51.024Z,19.68
2017-09-29T16:30:59.860Z,19.69
2017-09-29T16:32:08.707Z,19.61
2017-09-29T16:33:17.541Z,19.59
2017-09-29T16:34:26.382Z,19.59
2017-09-29T16:35:35.221Z,19.62
2017-09-29T16:36:44.377Z,19.54
2017-09-29T16:37:53.222Z,19.59
2017-09-29T16:39:02.063Z,19.55
2017-09-29T16:40:10.901Z,19.46
2017-09-29T16:41:19.742Z,19.41
2017-09-29T16:42:28.580Z,19.48
2017-09-29T16:43:37.420Z,19.4
2017-09-29T16:44:46.254Z,19.37
2017-09-29T16:45:55.093Z,19.43
2017-09-29T16:47:03.932Z,19.39
2017-09-29T16:48:12.775Z,19.39
2017-09-29T16:49:21.612Z,19.36
2017-09-29T16:50:30.453Z,19.37
2017-09-29T16:51:39.291Z,19.4
2017-09-29T16:52:48.131Z,19.33
2017-09-29T16:53:56.976Z,19.31
2017-09-29T16:55:05.812Z,19.25
2017-09-29T16:56:14.650Z,19.26
2017-09-29T16:57:23.487Z,19.18
2017-09-29T16:58:32.328Z,19.19
2017-09-29T16:59:41.167Z,19.22
2017-09-29T17:00:50.008Z,19.14
2017-09-29T17:01:58.845Z,19.18
2017-09-29T17:03:07.684Z,19.18
2017-09-29T17:04:16.524Z,19.06
2017-09-29T17:05:25.685Z,18.99
2017-09-29T17:06:34.523Z,19.1
2017-09-29T17:07:43.360Z,19
2017-09-29T17:08:52.197Z,18.95
2017-09-29T17:10:01.362Z,18.95
2017-09-29T17:11:10.207Z,18.99
2017-09-29T17:12:19.047Z,18.95
2017-09-29T17:13:27.886Z,18.95
2017-09-29T17:14:36.721Z,18.92
2017-09-29T17:15:45.559Z,18.91
2017-09-29T17:16:54.400Z,18.99
2017-09-29T17:18:03.243Z,18.87
2017-09-29T17:19:12.081Z,18.87
2017-09-29T17:20:20.921Z,18.76
2017-09-29T17:21:29.761Z,18.87
2017-09-29T17:22:38.605Z,18.82
2017-09-29T17:23:47.442Z,18.73
2017-09-29T17:24:56.284Z,18.69
2017-09-29T17:26:05.120Z,18.66
2017-09-29T17:27:14.288Z,18.62
2017-09-29T17:28:23.130Z,18.6
2017-09-29T17:29:31.972Z,18.62
2017-09-29T17:30:40.808Z,18.55
2017-09-29T17:31:49.647Z,18.63
2017-09-29T17:32:58.490Z,18.6
2017-09-29T17:34:07.327Z,18.66
2017-09-29T17:35:16.497Z,18.62
2017-09-29T17:36:25.325Z,18.48
2017-09-29T17:37:34.163Z,18.5
2017-09-29T17:38:43.006Z,18.47
2017-09-29T17:39:51.845Z,18.5
2017-09-29T17:41:00.687Z,18.48
2017-09-29T17:42:09.524Z,18.48
2017-09-29T17:43:18.370Z,18.47
2017-09-29T17:44:27.206Z,18.45
2017-09-29T17:45:36.048Z,18.35
2017-09-29T17:46:44.887Z,18.51
2017-09-29T17:47:53.724Z,18.5
2017-09-29T17:49:02.567Z,18.44
2017-09-29T17:50:11.409Z,18.39
2017-09-29T17:51:20.246Z,18.42
2017-09-29T17:52:29.078Z,18.52
2017-09-29T17:53:37.922Z,18.41
2017-09-29T17:54:46.759Z,18.37
2017-09-29T17:55:55.604Z,18.32
2017-09-29T17:57:04.443Z,18.42
2017-09-29T17:58:13.279Z,18.37
2017-09-29T17:59:22.120Z,18.35
2017-09-29T18:00:30.964Z,18.29
2017-09-29T18:01:39.799Z,18.29
2017-09-29T18:02:48.642Z,18.25
2017-09-29T18:03:57.481Z,18.3
2017-09-29T18:05:06.322Z,18.17
2017-09-29T18:06:15.161Z,18.14
2017-09-29T18:07:24.003Z,18.1
2017-09-29T18:08:32.837Z,18.14
2017-09-29T18:09:42.002Z,18.21
2017-09-29T18:10:50.840Z,18.14
2017-09-29T18:11:59.679Z,18
2017-09-29T18:13:08.514Z,18.05
2017-09-29T18:14:17.351Z,18.05
2017-09-29T18:15:26.185Z,18.02
2017-09-29T18:16:35.029Z,18.07
2017-09-29T18:17:43.869Z,18.07
2017-09-29T18:18:52.708Z,18.02
2017-09-29T18:20:01.546Z,17.96
2017-09-29T18:21:10.382Z,18.02
2017-09-29T18:22:19.223Z,17.99
2017-09-29T18:23:28.383Z,17.93
2017-09-29T18:24:37.225Z,17.86
2017-09-29T18:25:46.062Z,17.86
2017-09-29T18:26:54.895Z,17.86
2017-09-29T18:28:03.739Z,17.89
2017-09-29T18:29:12.583Z,17.74
2017-09-29T18:30:21.421Z,17.64
2017-09-29T18:31:30.259Z,17.82
2017-09-29T18:32:39.097Z,17.62
2017-09-29T18:33:47.935Z,17.62
2017-09-29T18:34:56.772Z,17.71
2017-09-29T18:36:05.617Z,17.66
2017-09-29T18:37:14.451Z,17.62
2017-09-29T18:38:23.295Z,17.72
2017-09-29T18:39:32.128Z,17.71
2017-09-29T18:40:40.966Z,17.52
2017-09-29T18:41:49.805Z,17.58
2017-09-29T18:42:58.642Z,17.62
2017-09-29T18:44:07.487Z,17.55
2017-09-29T18:45:16.322Z,17.56
2017-09-29T18:46:25.163Z,17.56
2017-09-29T18:47:33.999Z,17.62
2017-09-29T18:48:42.841Z,17.62
2017-09-29T18:49:52.002Z,17.54
2017-09-29T18:51:00.842Z,17.54
2017-09-29T18:52:09.680Z,17.59
2017-09-29T18:53:18.522Z,17.54
2017-09-29T18:54:27.361Z,17.51
2017-09-29T18:55:36.523Z,17.58
2017-09-29T18:56:45.361Z,17.62
2017-09-29T18:57:54.199Z,17.49
2017-09-29T18:59:03.037Z,17.48
2017-09-29T19:00:11.876Z,17.46
2017-09-29T19:01:20.718Z,17.51
2017-09-29T19:02:29.558Z,17.44
2017-09-29T19:03:38.394Z,17.44
2017-09-29T19:04:47.234Z,17.46
2017-09-29T19:05:56.077Z,17.44
2017-09-29T19:07:05.237Z,17.43
2017-09-29T19:08:14.075Z,17.44
2017-09-29T19:09:23.239Z,17.4
2017-09-29T19:10:32.073Z,17.4
2017-09-29T19:11:40.912Z,17.38
2017-09-29T19:12:50.079Z,17.44
2017-09-29T19:13:58.917Z,17.4
2017-09-29T19:15:07.757Z,17.28
2017-09-29T19:16:16.589Z,17.25
2017-09-29T19:17:25.427Z,17.25
2017-09-29T19:18:34.270Z,17.25
2017-09-29T19:19:43.110Z,17.19
2017-09-29T19:20:51.944Z,17.22
2017-09-29T19:22:00.786Z,17.26
2017-09-29T19:23:09.624Z,17.21
2017-09-29T19:24:18.456Z,17.11
2017-09-29T19:25:27.636Z,17.18
2017-09-29T19:26:36.472Z,17.11
2017-09-29T19:27:45.308Z,17.18
2017-09-29T19:28:54.149Z,17.12
2017-09-29T19:30:02.989Z,17.21
2017-09-29T19:31:11.826Z,17.15
2017-09-29T19:32:20.666Z,17.14
2017-09-29T19:33:29.507Z,17.14
2017-09-29T19:34:38.346Z,17.14
2017-09-29T19:35:47.181Z,17.14
2017-09-29T19:36:56.343Z,17.12
2017-09-29T19:38:05.181Z,17.11
2017-09-29T19:39:14.022Z,17.08
2017-09-29T19:40:22.860Z,17.07
2017-09-29T19:41:31.696Z,16.96
2017-09-29T19:42:40.535Z,16.97
2017-09-29T19:43:49.380Z,16.88
2017-09-29T19:44:58.219Z,17.01
2017-09-29T19:46:07.061Z,16.98
2017-09-29T19:47:15.898Z,16.93
2017-09-29T19:48:25.059Z,16.97
2017-09-29T19:49:33.893Z,16.91
2017-09-29T19:50:42.731Z,16.93
2017-09-29T19:51:51.566Z,16.89
2017-09-29T19:53:00.404Z,16.82
2017-09-29T19:54:09.244Z,16.89
2017-09-29T19:55:18.077Z,16.86
2017-09-29T19:56:26.914Z,16.82
2017-09-29T19:57:35.752Z,16.76
2017-09-29T19:58:44.586Z,16.81
2017-09-29T19:59:53.423Z,16.73
2017-09-29T20:01:02.261Z,16.73
2017-09-29T20:02:11.097Z,16.78
2017-09-29T20:03:19.934Z,16.81
2017-09-29T20:04:28.777Z,16.75
2017-09-29T20:05:37.611Z,16.68
2017-09-29T20:06:46.449Z,16.79
2017-09-29T20:07:55.289Z,16.78
2017-09-29T20:09:04.125Z,16.67
2017-09-29T20:10:12.965Z,16.66
2017-09-29T20:11:21.804Z,16.68
2017-09-29T20:12:30.646Z,16.66
2017-09-29T20:13:39.482Z,16.75
2017-09-29T20:14:48.322Z,16.7
2017-09-29T20:15:57.158Z,16.71
2017-09-29T20:17:05.991Z,16.73
2017-09-29T20:18:14.827Z,16.68
2017-09-29T20:19:23.662Z,16.66
2017-09-29T20:20:32.500Z,16.7
2017-09-29T20:21:41.338Z,16.57
2017-09-29T20:22:50.176Z,16.6
2017-09-29T20:23:59.012Z,16.6
2017-09-29T20:25:07.854Z,16.57
2017-09-29T20:26:16.695Z,16.58
2017-09-29T20:27:25.534Z,16.58
2017-09-29T20:28:34.378Z,16.58
2017-09-29T20:29:43.212Z,16.58
2017-09-29T20:30:52.050Z,16.57
2017-09-29T20:32:00.887Z,16.52
2017-09-29T20:33:09.731Z,16.56
2017-09-29T20:34:18.570Z,16.45
2017-09-29T20:35:27.408Z,16.45
2017-09-29T20:36:36.244Z,16.49
2017-09-29T20:37:45.081Z,16.45
2017-09-29T20:38:53.918Z,16.52
2017-09-29T20:40:02.755Z,16.46
2017-09-29T20:41:11.596Z,16.45
2017-09-29T20:42:20.433Z,16.39
2017-09-29T20:43:29.267Z,16.35
2017-09-29T20:44:38.109Z,16.39
2017-09-29T20:45:46.944Z,16.43
2017-09-29T20:46:55.780Z,16.45
2017-09-29T20:48:04.615Z,16.39
2017-09-29T20:49:13.454Z,16.38
2017-09-29T20:50:22.611Z,16.35
2017-09-29T20:51:31.780Z,16.33
2017-09-29T20:52:40.616Z,16.38
2017-09-29T20:53:49.452Z,16.35
2017-09-29T20:54:58.288Z,16.31
2017-09-29T20:56:07.125Z,16.3
2017-09-29T20:57:15.960Z,16.27
2017-09-29T20:58:24.802Z,16.24
2017-09-29T20:59:33.636Z,16.24
2017-09-29T21:00:42.477Z,16.25
2017-09-29T21:01:51.316Z,16.25
2017-09-29T21:03:00.159Z,16.24
2017-09-29T21:04:08.989Z,16.24
2017-09-29T21:05:17.831Z,16.14
2017-09-29T21:06:26.663Z,16.21
2017-09-29T21:07:35.501Z,16.12
2017-09-29T21:08:44.339Z,16.21
2017-09-29T21:09:53.185Z,16.17
2017-09-29T21:11:02.020Z,16.17
2017-09-29T21:12:10.858Z,16.14
2017-09-29T21:13:19.698Z,16.07
2017-09-29T21:14:28.539Z,16.14
2017-09-29T21:15:37.374Z,16.17
2017-09-29T21:16:46.214Z,16.09
2017-09-29T21:17:55.045Z,16.17
2017-09-29T21:19:03.890Z,16.07
2017-09-29T21:20:13.043Z,16.17
2017-09-29T21:21:21.885Z,16.15
2017-09-29T21:22:30.725Z,16.09
2017-09-29T21:23:39.559Z,15.96
2017-09-29T21:24:48.726Z,16.07
2017-09-29T21:25:57.563Z,15.94
2017-09-29T21:27:06.402Z,16.01
2017-09-29T21:28:15.242Z,16.02
2017-09-29T21:29:24.076Z,16.04
2017-09-29T21:30:32.917Z,15.9
2017-09-29T21:31:41.753Z,16
2017-09-29T21:32:50.589Z,16.01
2017-09-29T21:33:59.424Z,15.82
2017-09-29T21:35:08.261Z,15.9
2017-09-29T21:36:17.095Z,15.9
2017-09-29T21:37:25.935Z,15.86
2017-09-29T21:38:34.775Z,15.96
2017-09-29T21:39:43.617Z,15.9
2017-09-29T21:40:52.451Z,15.87
2017-09-29T21:42:01.284Z,15.87
2017-09-29T21:43:10.125Z,15.83
2017-09-29T21:44:18.960Z,15.78
2017-09-29T21:45:27.796Z,15.84
2017-09-29T21:46:36.631Z,15.84
2017-09-29T21:47:45.469Z,15.74
2017-09-29T21:48:54.306Z,15.78
2017-09-29T21:50:03.469Z,15.86
2017-09-29T21:51:12.300Z,15.82
2017-09-29T21:52:21.142Z,15.84
2017-09-29T21:53:29.972Z,15.74
2017-09-29T21:54:38.804Z,15.74
2017-09-29T21:55:47.641Z,15.78
2017-09-29T21:56:56.476Z,15.69
2017-09-29T21:58:05.644Z,15.69
2017-09-29T21:59:14.477Z,15.69
2017-09-29T22:00:23.316Z,15.65
2017-09-29T22:01:32.154Z,15.72
2017-09-29T22:02:40.996Z,15.71
2017-09-29T22:03:49.828Z,15.67
2017-09-29T22:04:58.669Z,15.64
2017-09-29T22:06:07.505Z,15.69
2017-09-29T22:07:16.338Z,15.54
2017-09-29T22:08:25.178Z,15.57
2017-09-29T22:09:34.021Z,15.6
2017-09-29T22:10:42.854Z,15.56
2017-09-29T22:11:51.692Z,15.62
2017-09-29T22:13:00.529Z,15.49
2017-09-29T22:14:09.365Z,15.54
2017-09-29T22:15:18.197Z,15.59
2017-09-29T22:16:27.038Z,15.5
2017-09-29T22:17:35.872Z,15.49
2017-09-29T22:18:44.714Z,15.46
2017-09-29T22:19:53.545Z,15.43
2017-09-29T22:21:02.378Z,15.47
2017-09-29T22:22:11.220Z,15.43
2017-09-29T22:23:20.056Z,15.49
2017-09-29T22:24:28.889Z,15.51
2017-09-29T22:25:37.728Z,15.41
2017-09-29T22:26:46.558Z,15.43
2017-09-29T22:27:55.395Z,15.44
2017-09-29T22:29:04.236Z,15.44
2017-09-29T22:30:13.076Z,15.43
2017-09-29T22:31:21.908Z,15.41
2017-09-29T22:32:30.752Z,15.44
2017-09-29T22:33:39.585Z,15.43
2017-09-29T22:34:48.421Z,15.44
2017-09-29T22:35:57.261Z,15.35
2017-09-29T22:37:06.099Z,15.34
2017-09-29T22:38:14.931Z,15.35
2017-09-29T22:39:23.768Z,15.38
2017-09-29T22:40:32.602Z,15.23
2017-09-29T22:41:41.443Z,15.35
2017-09-29T22:42:50.278Z,15.34
2017-09-29T22:43:59.108Z,15.25
2017-09-29T22:45:07.949Z,15.32
2017-09-29T22:46:16.795Z,15.19
2017-09-29T22:47:25.628Z,15.28
2017-09-29T22:48:34.790Z,15.19
2017-09-29T22:49:43.626Z,15.17
2017-09-29T22:50:52.459Z,15.16
2017-09-29T22:52:01.299Z,15.23
2017-09-29T22:53:10.141Z,15.21
2017-09-29T22:54:18.972Z,15.19
2017-09-29T22:55:27.823Z,15.2
2017-09-29T22:56:36.965Z,15.2
2017-09-29T22:57:45.801Z,15.19
2017-09-29T22:58:54.637Z,15.2
2017-09-29T23:00:03.475Z,15.27
2017-09-29T23:01:12.313Z,15.16
2017-09-29T23:02:21.154Z,15.23
2017-09-29T23:03:29.985Z,15.19
2017-09-29T23:04:38.821Z,15.19
2017-09-29T23:05:47.659Z,15.16
2017-09-29T23:06:56.496Z,15.16
2017-09-29T23:08:05.325Z,15.09
2017-09-29T23:09:14.164Z,15.11
2017-09-29T23:10:22.993Z,15.09
2017-09-29T23:11:31.835Z,15.09
2017-09-29T23:12:40.998Z,15.03
2017-09-29T23:13:49.835Z,15.07
2017-09-29T23:14:58.993Z,15.09
2017-09-29T23:16:07.827Z,15.09
2017-09-29T23:17:16.663Z,14.99
2017-09-29T23:18:25.831Z,15.07
2017-09-29T23:19:34.991Z,15.02
2017-09-29T23:20:43.845Z,15.02
2017-09-29T23:21:52.658Z,15.03
2017-09-29T23:23:01.496Z,14.95
2017-09-29T23:24:10.329Z,15.01
2017-09-29T23:25:19.165Z,15.01
2017-09-29T23:26:28.000Z,15.02
2017-09-29T23:27:36.849Z,15.02
2017-09-29T23:28:45.682Z,14.99
2017-09-29T23:29:54.515Z,14.98
2017-09-29T23:31:03.353Z,14.92
2017-09-29T23:32:12.189Z,14.98
2017-09-29T23:33:21.021Z,14.89
2017-09-29T23:34:29.859Z,14.96
2017-09-29T23:35:38.693Z,14.92
2017-09-29T23:36:47.531Z,14.95
2017-09-29T23:37:56.689Z,14.92
2017-09-29T23:39:05.846Z,14.88
2017-09-29T23:40:14.679Z,14.94
2017-09-29T23:41:23.511Z,14.92
2017-09-29T23:42:32.347Z,14.94